Coria del Rio, Spain
Current Conditions -  °F | °C
As of 5:00 AM on Monday 22 Dec 2014 (Local Time) from LEMO Reporting Station
Clear Clear  
Wind Chill: 41°   Ceiling: Unl
Heat Index: 41°   Visibility: 6mi
Dew Point: 39°   Wind: 1mph
Humidity: 93%   Direction: 60°ENE
Pressure: 30.33"   Gusts: NA
Location:  37.29°N, 6.05°W
Report Text: LEMO 220400Z 06001KT CAVOK 05/04 Q1027 NOSIG
Loading
Personal Weather Stations






























Interactive Weather Map New forecast layout! Learn more

10-Day Weather Forecast

Advertisements
Track Severe Weather on mobile